Nearby METAR Reports

KBED - Bedford,MA, USA
Distance from station: S 11mi, 18km
Updated: Tue, 26-Jan-2021 2:51am EST
Clear
Clear
 Wind from W
Wind: W 5 mph , 7 km/h
Temperature: 21°F , -6°C
Wind Chill: 14°F , -10°C
Dew Point: 12°F , -11°C
Humidity: 68%
Barometer: 30.07 inHg , 1018.3 hPa
Clouds: Clear
Visibility: 10 miles , 16 km
2021/01/26 07:51 KBED 260751Z AUTO 28004KT 10SM CLR M06/M11 A3007 RMK AO2 SLP198 T10611106
KLWM - Lawrence,MA, USA
Distance from station: ENE 12mi, 19km
Updated: Tue, 26-Jan-2021 2:54am EST
Clear
Clear
 Wind from W
Wind: W 5 mph , 7 km/h
Temperature: 21°F , -6°C
Wind Chill: 14°F , -10°C
Dew Point: 12°F , -11°C
Humidity: 68%
Barometer: 30.08 inHg , 1018.6 hPa
Clouds: Clear
Visibility: 10 miles , 16 km
2021/01/26 07:54 KLWM 260754Z AUTO 26004KT 10SM CLR M06/M11 A3008 RMK AO2 SLP187 T10561106
 
KASH - Nashua,NH, USA
Distance from station: NW 14mi, 23km
Updated: Tue, 26-Jan-2021 2:56am EST
Clear
Clear
 Wind from calm
Wind: Calm
Temperature: 18°F , -8°C
Dew Point: 16°F , -9°C
Humidity: 93%
Barometer: 30.07 inHg , 1018.3 hPa
Clouds: Clear
Visibility: 10 miles , 16 km
2021/01/26 07:56 KASH 260756Z AUTO 00000KT 10SM CLR M08/M09 A3007 RMK AO2 SLP192 T10831094
KFIT - Fitchburg, MA, USA
Distance from station: WSW 22mi, 35km
Updated: Tue, 26-Jan-2021 2:52am EST
Clear
Clear
 Wind from calm
Wind: Calm
Temperature: 18°F , -8°C
Dew Point: 14°F , -10°C
Humidity: 86%
Barometer: 30.07 inHg , 1018.3 hPa
Clouds: Clear
Visibility: 10 miles , 16 km
2021/01/26 07:52 KFIT 260752Z AUTO 00000KT 10SM CLR M08/M10 A3007 RMK AO2 SLP188 T10781100

Metar display script from Saratoga-Weather.org